Selkirk, Kansas
Current Conditions -  °F | °C
As of 6:55 PM on Tuesday 21 Oct 2014 (Local Time) from K3K3 Reporting Station
Clear Clear  
Wind Chill: 73°   Ceiling: Unl
Heat Index: 73°   Visibility: 10mi
Dew Point: 45°   Wind: 12mph
Humidity: 36%   Direction: 180°S
Pressure: 29.95"   Gusts: NA
Location:  38.484°N, 101.361°W
Report Text: K3K3 212355Z AUTO 18010KT 10SM CLR 23/07 A2995 RMK AO2
Loading
Personal Weather Stations






























Interactive Weather Map
Tropical Storm Tracking
New forecast layout! Learn more

10-Day Weather Forecast

Advertisements
Track Severe Weather on mobile